Time;durP1;ratioP1;P1;durP2;ratioP2;P2;SDS_P1;SDS_P2;PMS_P1;PMS_P2;Temp;Humidity;BMP_temperature;BMP_pressure;BME280_temperature;BME280_humidity;BME280_pressure;Samples;Min_cycle;Max_cycle;Signal;HPM_P1;HPM_P2
2022/09/22 00:01:30;;;;;;;3.97;3.58;;;6.70;99.90;;;;;;5020625;28;20299;-76
2022/09/22 00:03:59;;;;;;;4.00;3.70;;;6.40;99.90;;;;;;5030072;28;20183;-78
2022/09/22 00:06:28;;;;;;;3.92;3.63;;;6.40;99.90;;;;;;5023730;28;20193;-77
2022/09/22 00:08:59;;;;;;;3.50;3.30;;;6.40;99.90;;;;;;5031159;28;20184;-77
2022/09/22 00:11:30;;;;;;;3.80;3.50;;;6.50;99.90;;;;;;5026720;28;20200;-76
2022/09/22 00:14:01;;;;;;;3.90;3.63;;;6.50;99.90;;;;;;5030910;28;20176;-76
2022/09/22 00:16:36;;;;;;;3.55;3.25;;;6.60;99.90;;;;;;5034476;28;20181;-77
2022/09/22 00:19:05;;;;;;;4.15;3.70;;;6.60;99.90;;;;;;5032708;28;20182;-77
2022/09/22 00:21:31;;;;;;;3.90;3.60;;;6.50;99.90;;;;;;5041291;28;20204;-77
2022/09/22 00:23:56;;;;;;;4.00;3.40;;;6.50;99.90;;;;;;5040713;28;20183;-77
2022/09/22 00:26:23;;;;;;;3.35;3.15;;;6.30;99.90;;;;;;5026795;28;20208;-77
2022/09/22 00:28:51;;;;;;;3.58;3.28;;;6.30;99.90;;;;;;5033408;28;20207;-76
2022/09/22 00:31:20;;;;;;;4.15;3.80;;;6.20;99.90;;;;;;5035920;28;20628;-76
2022/09/22 00:33:46;;;;;;;4.05;3.65;;;6.10;99.90;;;;;;5014801;28;20602;-77
2022/09/22 00:36:16;;;;;;;3.70;3.40;;;6.10;99.90;;;;;;5023721;28;20216;-77
2022/09/22 00:38:42;;;;;;;4.28;3.88;;;6.00;99.90;;;;;;5032145;28;20176;-76
2022/09/22 00:41:15;;;;;;;3.47;3.20;;;6.00;99.90;;;;;;5044435;28;20204;-76
2022/09/22 00:43:42;;;;;;;4.97;3.50;;;5.90;99.90;;;;;;5039014;28;20266;-76
2022/09/22 00:46:23;;;;;;;4.32;3.55;;;5.90;99.90;;;;;;5049137;28;20286;-76
2022/09/22 00:49:00;;;;;;;3.70;3.40;;;5.80;99.90;;;;;;5033001;28;20177;-78
2022/09/22 00:51:30;;;;;;;3.80;3.50;;;5.90;99.90;;;;;;5037181;28;20184;-76
2022/09/22 00:53:57;;;;;;;3.83;3.50;;;5.80;99.90;;;;;;5036238;28;20223;-77
2022/09/22 00:56:32;;;;;;;3.55;3.33;;;5.80;99.90;;;;;;5036428;28;20181;-76
2022/09/22 00:59:03;;;;;;;4.82;3.30;;;5.70;99.90;;;;;;5038972;28;20197;-76
2022/09/22 01:01:29;;;;;;;6.28;3.58;;;5.60;99.90;;;;;;5042984;28;20198;-76
2022/09/22 01:03:56;;;;;;;5.18;3.97;;;5.70;99.90;;;;;;5037382;28;20810;-77
2022/09/22 01:06:26;;;;;;;4.95;4.10;;;5.60;99.90;;;;;;5035771;28;20196;-78
2022/09/22 01:08:53;;;;;;;6.68;3.90;;;5.60;99.90;;;;;;5026581;28;20181;-78
2022/09/22 01:11:19;;;;;;;5.75;4.00;;;5.60;99.90;;;;;;5035601;28;20271;-77
2022/09/22 01:14:20;;;;;;;4.22;3.83;;;5.70;99.90;;;;;;5041831;28;20173;-77
2022/09/22 01:17:11;;;;;;;6.03;4.22;;;5.70;99.90;;;;;;5036345;28;20184;-77
2022/09/22 01:20:08;;;;;;;6.40;5.10;;;5.70;99.90;;;;;;5037136;28;20184;-77
2022/09/22 01:22:55;;;;;;;5.22;4.72;;;5.70;99.90;;;;;;5038111;28;20180;-77
2022/09/22 01:25:33;;;;;;;4.90;4.28;;;5.60;99.90;;;;;;5025168;28;20534;-77
2022/09/22 01:28:04;;;;;;;4.78;4.38;;;5.60;99.90;;;;;;5045134;28;20195;-77
2022/09/22 01:30:44;;;;;;;4.35;3.95;;;5.60;99.90;;;;;;5044452;28;20553;-77
2022/09/22 01:33:28;;;;;;;4.90;4.50;;;5.60;99.90;;;;;;5024041;28;20183;-76
2022/09/22 01:35:59;;;;;;;4.53;4.13;;;5.50;99.90;;;;;;5043513;28;20177;-76
2022/09/22 01:38:33;;;;;;;4.80;4.40;;;5.40;99.90;;;;;;5045920;28;20172;-76
2022/09/22 01:41:21;;;;;;;6.30;4.25;;;5.50;99.90;;;;;;5042670;28;20198;-78
2022/09/22 01:43:55;;;;;;;4.20;3.90;;;5.40;99.90;;;;;;5027830;28;20196;-77
2022/09/22 01:46:36;;;;;;;5.75;4.10;;;5.40;99.90;;;;;;5040517;28;20199;-78
2022/09/22 01:49:06;;;;;;;4.65;3.95;;;5.30;99.90;;;;;;5044870;28;20168;-78
2022/09/22 01:51:53;;;;;;;4.15;3.75;;;5.40;99.90;;;;;;5040165;28;20570;-79
2022/09/22 01:54:33;;;;;;;4.30;3.88;;;5.30;99.90;;;;;;5044367;28;20184;-78
2022/09/22 01:57:14;;;;;;;4.28;3.83;;;5.30;99.90;;;;;;5048592;28;20187;-78
2022/09/22 01:59:46;;;;;;;5.35;3.80;;;5.30;99.90;;;;;;5046981;28;20660;-78
2022/09/22 02:02:27;;;;;;;4.13;3.80;;;5.30;99.90;;;;;;5050587;28;20207;-78
2022/09/22 02:04:58;;;;;;;3.95;3.53;;;5.30;99.90;;;;;;5046352;28;20230;-78
2022/09/22 02:07:32;;;;;;;4.30;4.00;;;5.20;99.90;;;;;;5049878;28;20204;-78
2022/09/22 02:10:01;;;;;;;4.60;4.22;;;5.20;99.90;;;;;;5045943;28;20556;-79
2022/09/22 02:12:27;;;;;;;4.85;4.20;;;5.20;99.90;;;;;;5049158;28;20196;-79
2022/09/22 02:14:53;;;;;;;4.63;4.20;;;5.20;99.90;;;;;;5045580;28;20263;-78
2022/09/22 02:17:19;;;;;;;4.03;3.72;;;5.10;99.90;;;;;;5048078;28;20176;-79
2022/09/22 02:19:44;;;;;;;4.07;3.67;;;5.10;99.90;;;;;;5045156;28;20187;-79
2022/09/22 02:22:11;;;;;;;4.30;4.00;;;5.10;99.90;;;;;;5047011;28;20564;-78
2022/09/22 02:24:42;;;;;;;4.97;4.40;;;5.10;99.90;;;;;;5044139;28;20283;-78
2022/09/22 02:27:35;;;;;;;4.80;4.40;;;5.10;99.90;;;;;;5029144;28;20214;-78
2022/09/22 02:30:07;;;;;;;3.60;3.40;;;5.10;99.90;;;;;;5041129;28;20177;-78
2022/09/22 02:32:34;;;;;;;4.18;3.75;;;5.00;99.90;;;;;;5047986;28;20250;-78
2022/09/22 02:35:00;;;;;;;4.30;3.95;;;5.00;99.90;;;;;;5041049;28;20181;-78
2022/09/22 02:37:49;;;;;;;4.18;3.80;;;5.00;99.90;;;;;;5039669;28;20179;-79
2022/09/22 02:40:29;;;;;;;4.55;4.13;;;4.90;99.90;;;;;;5037073;28;20173;-79
2022/09/22 02:43:11;;;;;;;5.25;4.63;;;4.90;99.90;;;;;;5043812;28;20625;-79
2022/09/22 02:45:39;;;;;;;3.95;3.38;;;5.00;99.90;;;;;;5041289;28;20200;-79
2022/09/22 02:48:11;;;;;;;3.97;3.38;;;5.10;99.90;;;;;;5030246;28;20750;-79
2022/09/22 02:50:37;;;;;;;3.90;3.60;;;5.20;99.90;;;;;;5042903;28;20200;-79
2022/09/22 02:53:11;;;;;;;3.90;3.50;;;5.20;99.90;;;;;;5029292;28;20172;-79
2022/09/22 02:55:37;;;;;;;4.55;3.92;;;5.00;99.90;;;;;;5037628;28;20168;-78
2022/09/22 02:58:02;;;;;;;3.63;3.42;;;5.00;99.90;;;;;;5031160;28;20620;-78
2022/09/22 03:00:28;;;;;;;3.55;3.25;;;4.90;99.90;;;;;;5043207;28;20196;-78
2022/09/22 03:02:54;;;;;;;6.00;3.50;;;4.90;99.90;;;;;;5041557;28;20199;-78
2022/09/22 03:05:19;;;;;;;3.88;3.53;;;4.90;99.90;;;;;;5044215;28;20176;-78
2022/09/22 03:07:45;;;;;;;3.85;3.50;;;4.90;99.90;;;;;;5037946;28;21929;-78
2022/09/22 03:10:11;;;;;;;3.78;3.50;;;4.90;99.90;;;;;;5040714;28;20605;-78
2022/09/22 03:12:41;;;;;;;4.25;3.95;;;4.90;99.90;;;;;;5045040;28;20176;-79
2022/09/22 03:15:09;;;;;;;4.28;3.97;;;4.90;99.90;;;;;;5034819;28;20168;-79
2022/09/22 03:17:35;;;;;;;4.65;3.80;;;4.90;99.90;;;;;;5033283;28;20271;-77
2022/09/22 03:20:02;;;;;;;4.25;3.85;;;4.90;99.90;;;;;;5042054;28;20276;-77
2022/09/22 03:22:28;;;;;;;3.78;3.53;;;5.00;99.90;;;;;;5037878;28;20200;-77
2022/09/22 03:24:53;;;;;;;4.03;3.72;;;5.00;99.90;;;;;;5037827;28;20348;-77
2022/09/22 03:27:19;;;;;;;4.30;3.97;;;5.10;99.90;;;;;;5043682;28;20242;-77
2022/09/22 03:29:44;;;;;;;4.28;3.97;;;5.20;99.90;;;;;;5042640;28;20179;-77
2022/09/22 03:32:10;;;;;;;6.07;3.97;;;5.30;99.90;;;;;;5044271;28;20261;-77
2022/09/22 03:34:36;;;;;;;4.47;4.18;;;5.30;99.90;;;;;;5039992;28;20259;-77
2022/09/22 03:37:01;;;;;;;3.95;3.65;;;5.30;99.90;;;;;;5042842;28;20255;-77
2022/09/22 03:39:27;;;;;;;4.32;4.03;;;5.40;99.90;;;;;;5041166;28;20230;-77
2022/09/22 03:41:52;;;;;;;3.85;3.65;;;5.40;99.90;;;;;;5040782;28;20569;-78
2022/09/22 03:44:18;;;;;;;3.72;3.42;;;5.50;99.90;;;;;;5043642;28;20200;-78
2022/09/22 03:46:43;;;;;;;4.20;3.80;;;5.50;99.90;;;;;;5041117;28;20196;-78
2022/09/22 03:49:09;;;;;;;4.00;3.65;;;5.50;99.90;;;;;;5040577;28;20180;-79
2022/09/22 03:51:35;;;;;;;4.50;3.95;;;5.60;99.90;;;;;;5039845;28;20188;-79
2022/09/22 03:54:01;;;;;;;3.40;3.17;;;5.60;99.90;;;;;;5047696;28;20672;-79
2022/09/22 03:56:27;;;;;;;3.67;3.38;;;5.80;99.90;;;;;;5041208;28;20173;-78
2022/09/22 03:58:53;;;;;;;3.30;3.10;;;5.90;99.90;;;;;;5032908;28;20188;-78
2022/09/22 04:01:18;;;;;;;3.47;2.80;;;5.80;99.90;;;;;;5050379;28;20200;-78
2022/09/22 04:03:44;;;;;;;5.30;3.95;;;5.70;99.90;;;;;;5046887;28;20185;-78
2022/09/22 04:06:10;;;;;;;4.55;3.63;;;5.80;99.90;;;;;;5040056;28;20226;-78
2022/09/22 04:08:36;;;;;;;3.75;3.55;;;5.70;99.90;;;;;;5044902;28;20185;-79
2022/09/22 04:11:02;;;;;;;7.22;4.03;;;5.70;99.90;;;;;;5053773;28;20196;-78
2022/09/22 04:13:28;;;;;;;3.65;3.45;;;5.70;99.90;;;;;;5043883;28;20177;-79
2022/09/22 04:15:54;;;;;;;3.78;3.47;;;5.70;99.90;;;;;;5043886;28;20185;-79
2022/09/22 04:18:19;;;;;;;4.20;3.90;;;5.80;99.90;;;;;;5047031;28;20539;-78
2022/09/22 04:20:45;;;;;;;4.00;3.70;;;5.70;99.90;;;;;;5044675;28;20206;-79
2022/09/22 04:23:12;;;;;;;5.55;4.13;;;5.70;99.90;;;;;;5050275;28;20251;-78
2022/09/22 04:25:38;;;;;;;3.58;3.38;;;5.60;99.90;;;;;;5033292;28;20191;-78
2022/09/22 04:28:04;;;;;;;3.75;3.55;;;5.60;99.90;;;;;;5046303;28;20203;-78
2022/09/22 04:30:31;;;;;;;5.72;3.80;;;5.70;99.90;;;;;;5043788;28;20206;-78
2022/09/22 04:32:58;;;;;;;3.83;3.53;;;5.70;99.90;;;;;;5043597;28;20216;-78
2022/09/22 04:35:25;;;;;;;3.58;3.38;;;5.70;99.90;;;;;;5043921;28;20173;-78
2022/09/22 04:37:51;;;;;;;3.83;3.53;;;5.70;99.90;;;;;;5041286;28;20176;-77
2022/09/22 04:40:17;;;;;;;3.70;3.50;;;5.70;99.90;;;;;;5042653;28;20187;-77
2022/09/22 04:42:44;;;;;;;4.35;4.05;;;5.70;99.90;;;;;;5037064;28;20279;-77
2022/09/22 04:45:10;;;;;;;4.88;3.60;;;5.80;99.90;;;;;;5036787;28;20176;-77
2022/09/22 04:47:35;;;;;;;3.42;3.17;;;5.70;99.90;;;;;;5043888;28;20200;-76
2022/09/22 04:50:01;;;;;;;3.78;3.50;;;5.80;99.90;;;;;;5046522;28;20182;-76
2022/09/22 04:52:26;;;;;;;4.28;3.70;;;5.80;99.90;;;;;;5027264;28;20212;-79
2022/09/22 04:54:52;;;;;;;3.67;3.47;;;5.90;99.90;;;;;;5033182;28;20687;-76
2022/09/22 04:57:17;;;;;;;3.80;3.55;;;5.80;99.90;;;;;;5032039;28;20196;-77
2022/09/22 04:59:43;;;;;;;4.10;3.70;;;5.80;99.90;;;;;;5028989;28;20267;-76
2022/09/22 05:02:09;;;;;;;3.75;3.13;;;5.80;99.90;;;;;;5031101;28;20197;-77
2022/09/22 05:04:34;;;;;;;3.03;2.90;;;5.80;99.90;;;;;;5029170;28;20753;-77
2022/09/22 05:07:00;;;;;;;3.63;3.20;;;5.80;99.90;;;;;;5046417;28;20291;-76
2022/09/22 05:09:27;;;;;;;4.50;3.90;;;5.80;99.90;;;;;;5031155;28;20305;-77
2022/09/22 05:11:53;;;;;;;3.65;3.45;;;5.70;99.90;;;;;;5035754;28;20200;-76
2022/09/22 05:14:18;;;;;;;3.90;3.50;;;5.70;99.90;;;;;;5038633;28;20713;-77
2022/09/22 05:16:44;;;;;;;3.58;3.28;;;5.80;99.90;;;;;;5032370;28;20272;-77
2022/09/22 05:19:10;;;;;;;3.70;3.40;;;5.80;99.90;;;;;;5032118;28;20234;-77
2022/09/22 05:21:36;;;;;;;3.63;3.42;;;5.80;99.90;;;;;;5045401;28;20235;-77
2022/09/22 05:24:03;;;;;;;3.83;3.53;;;5.90;99.90;;;;;;5040417;28;20600;-78
2022/09/22 05:26:29;;;;;;;4.43;3.75;;;5.90;99.90;;;;;;5045224;28;20740;-78
2022/09/22 05:28:56;;;;;;;3.42;3.22;;;6.00;99.90;;;;;;5039813;28;20683;-78
2022/09/22 05:31:22;;;;;;;3.65;3.45;;;6.00;99.90;;;;;;5041829;28;20198;-78
2022/09/22 05:33:48;;;;;;;3.40;3.20;;;6.20;99.90;;;;;;5037523;28;20558;-78
2022/09/22 05:36:14;;;;;;;4.45;3.17;;;6.20;99.90;;;;;;5035743;28;20185;-77
2022/09/22 05:38:40;;;;;;;3.05;2.88;;;6.30;99.90;;;;;;5042684;28;20235;-77
2022/09/22 05:41:06;;;;;;;3.63;3.33;;;6.40;99.90;;;;;;5048355;28;20200;-79
2022/09/22 05:43:31;;;;;;;3.67;3.35;;;6.40;99.90;;;;;;5034899;28;20200;-78
2022/09/22 05:45:57;;;;;;;3.50;3.30;;;6.40;99.90;;;;;;5043025;28;20601;-79
2022/09/22 05:48:23;;;;;;;3.50;3.30;;;6.30;99.90;;;;;;5043031;28;20176;-78
2022/09/22 05:50:48;;;;;;;3.55;3.10;;;6.30;99.90;;;;;;5048274;28;20207;-78
2022/09/22 05:53:15;;;;;;;10.57;3.65;;;6.50;99.90;;;;;;5036052;28;20177;-77
2022/09/22 05:55:41;;;;;;;5.70;3.30;;;6.60;99.90;;;;;;5043178;28;20169;-76
2022/09/22 05:58:10;;;;;;;3.17;2.88;;;6.60;99.90;;;;;;5046212;28;20177;-78
2022/09/22 06:00:36;;;;;;;3.72;3.05;;;6.70;99.90;;;;;;5033519;28;20215;-76
2022/09/22 06:03:02;;;;;;;3.88;3.05;;;6.70;99.90;;;;;;5030220;28;20202;-79
2022/09/22 06:05:29;;;;;;;5.65;3.55;;;6.70;99.90;;;;;;5023659;28;20659;-78
2022/09/22 06:08:05;;;;;;;3.75;3.00;;;6.70;99.90;;;;;;5027360;28;20220;-78
2022/09/22 06:10:35;;;;;;;4.00;2.53;;;6.60;99.90;;;;;;5035381;28;20228;-78
2022/09/22 06:13:03;;;;;;;2.80;2.70;;;6.60;99.90;;;;;;5040306;28;20242;-80
2022/09/22 06:15:31;;;;;;;3.60;2.35;;;6.80;99.90;;;;;;5047819;28;20227;-78
2022/09/22 06:17:57;;;;;;;2.97;2.78;;;6.90;99.90;;;;;;5024865;28;20256;-81
2022/09/22 06:20:23;;;;;;;2.75;2.60;;;7.00;99.90;;;;;;5030900;28;20185;-79
2022/09/22 06:22:48;;;;;;;2.90;2.80;;;7.10;99.90;;;;;;5033205;28;20700;-77
2022/09/22 06:25:15;;;;;;;2.90;2.80;;;7.20;99.90;;;;;;5033375;28;20176;-78
2022/09/22 06:27:41;;;;;;;2.55;2.45;;;7.40;99.90;;;;;;5035470;28;20227;-77
2022/09/22 06:30:10;;;;;;;2.75;2.63;;;7.40;99.90;;;;;;5039491;28;20175;-77
2022/09/22 06:32:42;;;;;;;2.65;2.45;;;7.40;99.90;;;;;;5045191;28;20267;-78
2022/09/22 06:35:08;;;;;;;2.50;2.40;;;7.40;99.90;;;;;;5031137;28;20192;-79
2022/09/22 06:37:37;;;;;;;3.00;2.80;;;7.60;99.90;;;;;;5035240;28;20717;-80
2022/09/22 06:40:06;;;;;;;4.32;3.45;;;7.80;99.90;;;;;;5034142;28;20207;-79
2022/09/22 06:42:32;;;;;;;2.85;2.65;;;7.90;99.90;;;;;;5035799;28;20190;-78
2022/09/22 06:44:58;;;;;;;3.25;3.05;;;8.00;99.90;;;;;;5029283;28;20192;-79
2022/09/22 06:47:23;;;;;;;2.92;2.83;;;8.20;99.90;;;;;;5025050;28;20209;-77
2022/09/22 06:49:49;;;;;;;3.33;3.13;;;8.30;99.90;;;;;;5038696;28;20205;-77
2022/09/22 06:52:14;;;;;;;3.63;3.33;;;8.40;99.90;;;;;;5029864;28;20236;-78
2022/09/22 06:54:41;;;;;;;3.20;3.00;;;8.60;99.90;;;;;;5032739;28;20188;-82
2022/09/22 06:57:10;;;;;;;3.63;2.92;;;8.60;99.90;;;;;;5043815;28;20199;-80
2022/09/22 06:59:36;;;;;;;2.58;2.47;;;8.70;99.90;;;;;;5033697;28;20567;-83
2022/09/22 07:02:06;;;;;;;2.70;2.58;;;8.80;99.90;;;;;;5028829;28;20200;-77
2022/09/22 07:04:33;;;;;;;2.60;2.50;;;9.00;99.90;;;;;;5035088;28;20185;-75
2022/09/22 07:06:59;;;;;;;3.05;2.85;;;9.10;99.90;;;;;;5045909;28;20200;-76
2022/09/22 07:09:25;;;;;;;3.15;2.78;;;9.30;99.90;;;;;;5036082;28;20667;-76
2022/09/22 07:11:51;;;;;;;2.85;2.70;;;9.60;99.90;;;;;;5040379;28;20201;-75
2022/09/22 07:14:19;;;;;;;2.75;2.55;;;9.80;99.90;;;;;;5038265;28;20176;-75
2022/09/22 07:16:45;;;;;;;2.67;2.58;;;9.90;99.90;;;;;;5045682;28;20594;-73
2022/09/22 07:19:11;;;;;;;2.72;2.53;;;10.10;99.90;;;;;;5042786;28;20219;-74
2022/09/22 07:21:37;;;;;;;2.70;2.47;;;10.10;99.90;;;;;;5034144;28;20228;-74
2022/09/22 07:24:03;;;;;;;2.88;2.67;;;10.20;99.90;;;;;;5037912;28;20180;-73
2022/09/22 07:26:32;;;;;;;3.15;2.85;;;10.20;99.90;;;;;;5036483;28;20201;-75
2022/09/22 07:29:00;;;;;;;2.97;2.78;;;10.20;99.90;;;;;;5041130;28;20184;-76
2022/09/22 07:31:29;;;;;;;2.97;2.78;;;10.30;99.90;;;;;;5038145;28;20193;-76
2022/09/22 07:33:55;;;;;;;3.00;2.80;;;10.30;99.90;;;;;;5043222;28;20659;-75
2022/09/22 07:36:22;;;;;;;4.07;3.25;;;10.40;99.90;;;;;;5042928;28;20656;-75
2022/09/22 07:38:50;;;;;;;3.00;2.80;;;10.30;99.90;;;;;;5046360;28;20183;-74
2022/09/22 07:41:18;;;;;;;2.83;2.70;;;10.20;99.90;;;;;;5037839;28;20211;-78
2022/09/22 07:43:45;;;;;;;3.22;2.92;;;10.00;99.90;;;;;;5046644;28;20206;-74
2022/09/22 07:46:13;;;;;;;3.47;3.20;;;10.00;99.90;;;;;;5043548;28;20701;-73
2022/09/22 07:51:18;;;;;;;3.00;2.80;;;9.90;99.90;;;;;;5038495;28;20921;-76
2022/09/22 07:54:06;;;;;;;2.92;2.72;;;9.90;99.90;;;;;;5044385;28;20180;-75
2022/09/22 07:56:32;;;;;;;3.13;2.83;;;9.60;99.90;;;;;;5038134;28;20235;-75
2022/09/22 07:59:03;;;;;;;3.53;2.92;;;9.50;99.90;;;;;;5041547;28;20184;-75
2022/09/22 08:01:31;;;;;;;4.75;3.20;;;9.30;99.90;;;;;;5043469;28;20224;-74
2022/09/22 08:03:56;;;;;;;3.92;3.63;;;9.30;99.90;;;;;;5033407;28;20177;-74
2022/09/22 08:06:22;;;;;;;3.08;2.88;;;9.30;99.90;;;;;;5045301;28;20207;-73
2022/09/22 08:08:52;;;;;;;3.22;3.03;;;9.20;99.90;;;;;;5042540;28;20180;-74
2022/09/22 08:11:20;;;;;;;3.60;3.35;;;9.10;99.90;;;;;;5043364;28;20279;-74
2022/09/22 08:13:52;;;;;;;3.28;3.08;;;9.10;99.90;;;;;;5037802;28;20263;-73
2022/09/22 08:16:19;;;;;;;2.92;2.72;;;9.10;99.90;;;;;;5043507;28;20218;-73
2022/09/22 08:18:58;;;;;;;3.63;3.33;;;9.10;99.90;;;;;;5044909;28;20180;-81
2022/09/22 08:21:36;;;;;;;3.35;3.15;;;9.10;99.90;;;;;;5049876;28;20196;-75
2022/09/22 08:24:03;;;;;;;3.28;3.08;;;9.10;99.90;;;;;;5050791;28;20701;-79
2022/09/22 08:26:29;;;;;;;3.35;3.15;;;9.20;99.90;;;;;;5041814;28;20236;-80
2022/09/22 08:28:55;;;;;;;3.15;2.97;;;9.30;99.90;;;;;;5031405;28;20177;-79
2022/09/22 08:31:23;;;;;;;3.03;2.80;;;9.40;99.90;;;;;;5038034;28;20211;-78
2022/09/22 08:33:51;;;;;;;3.05;2.88;;;9.60;99.90;;;;;;5046705;28;20270;-77
2022/09/22 08:36:17;;;;;;;2.95;2.83;;;9.80;99.90;;;;;;5037893;28;20199;-76
2022/09/22 08:38:46;;;;;;;2.72;2.53;;;10.00;99.90;;;;;;5041186;28;20229;-76
2022/09/22 08:44:31;;;;;;;3.10;2.90;;;10.60;99.90;;;;;;5051980;28;20192;-76
2022/09/22 08:47:00;;;;;;;2.42;2.33;;;12.20;99.90;;;;;;5043965;28;20208;-75
2022/09/22 08:52:27;;;;;;;3.13;2.83;;;17.40;99.90;;;;;;5028688;28;20208;-74
2022/09/22 08:54:58;;;;;;;2.47;2.38;;;19.90;99.90;;;;;;5038190;28;20185;-76
2022/09/22 08:57:40;;;;;;;2.60;2.40;;;21.70;92.20;;;;;;5047269;28;20168;-76
2022/09/22 09:00:16;;;;;;;2.55;2.33;;;22.60;83.30;;;;;;5044282;28;20655;-75
2022/09/22 09:03:22;;;;;;;2.47;2.28;;;23.30;77.40;;;;;;5040113;28;20188;-76
2022/09/22 09:06:29;;;;;;;2.22;2.13;;;22.90;74.50;;;;;;5027618;28;20180;-77
2022/09/22 09:09:15;;;;;;;4.35;2.33;;;21.70;77.00;;;;;;5038491;28;20287;-76
2022/09/22 09:12:19;;;;;;;2.45;2.35;;;22.50;74.50;;;;;;5037813;28;20232;-78
2022/09/22 09:15:04;;;;;;;2.53;2.33;;;23.40;70.50;;;;;;5050322;28;20576;-78
2022/09/22 09:17:35;;;;;;;2.72;2.53;;;25.00;67.20;;;;;;5040806;28;20180;-78
2022/09/22 09:20:11;;;;;;;2.13;2.03;;;26.40;60.80;;;;;;5036125;28;20209;-78
2022/09/22 09:22:42;;;;;;;2.10;2.00;;;27.50;58.90;;;;;;5039270;28;20255;-77
2022/09/22 09:25:22;;;;;;;1.90;1.77;;;28.40;54.70;;;;;;5028809;28;20542;-76
2022/09/22 09:28:02;;;;;;;2.22;1.77;;;29.10;53.90;;;;;;5020155;28;20831;-75
2022/09/22 09:30:37;;;;;;;2.10;1.90;;;29.50;51.80;;;;;;5040849;28;20228;-75
2022/09/22 09:33:09;;;;;;;2.10;2.00;;;29.90;50.80;;;;;;5029365;28;20187;-76
2022/09/22 09:35:49;;;;;;;1.83;1.73;;;29.90;51.10;;;;;;5032845;28;20681;-75
2022/09/22 09:38:16;;;;;;;1.98;1.88;;;29.80;49.40;;;;;;5031255;28;20188;-75
2022/09/22 09:40:47;;;;;;;2.13;1.83;;;30.10;48.70;;;;;;5033750;28;20319;-75
2022/09/22 09:43:13;;;;;;;2.47;1.75;;;30.20;49.40;;;;;;5013896;28;20197;-76
2022/09/22 09:45:39;;;;;;;1.85;1.52;;;30.60;47.80;;;;;;5026395;28;20530;-76
2022/09/22 09:48:23;;;;;;;1.63;1.52;;;31.70;46.10;;;;;;5031079;28;20246;-75
2022/09/22 09:50:49;;;;;;;1.50;1.40;;;32.50;44.30;;;;;;5034611;28;20298;-75
2022/09/22 09:53:41;;;;;;;1.73;1.63;;;32.90;43.50;;;;;;5041977;28;20211;-75
2022/09/22 09:56:20;;;;;;;2.00;1.90;;;32.70;43.30;;;;;;5037205;28;20176;-75
2022/09/22 10:01:53;;;;;;;4.20;1.67;;;32.60;44.10;;;;;;5045048;28;20195;-75
2022/09/22 10:04:37;;;;;;;1.73;1.63;;;32.70;42.90;;;;;;5045111;28;20183;-75
2022/09/22 10:07:21;;;;;;;2.10;1.73;;;33.20;42.80;;;;;;5038121;28;20205;-75
2022/09/22 10:09:49;;;;;;;3.03;1.85;;;33.70;40.90;;;;;;5040918;28;20233;-75
2022/09/22 10:12:25;;;;;;;1.52;1.42;;;34.20;40.20;;;;;;5031612;28;20670;-75
2022/09/22 10:14:53;;;;;;;2.42;1.52;;;33.60;40.80;;;;;;5036489;28;20194;-75
2022/09/22 10:17:26;;;;;;;1.70;1.30;;;32.40;41.30;;;;;;5030566;28;20469;-75
2022/09/22 10:19:52;;;;;;;3.08;1.30;;;32.30;42.50;;;;;;5031157;28;20192;-75
2022/09/22 10:22:27;;;;;;;1.63;1.52;;;33.20;40.60;;;;;;5035632;28;20195;-75
2022/09/22 10:24:59;;;;;;;1.50;1.40;;;33.40;41.70;;;;;;5042822;28;20300;-76
2022/09/22 10:27:26;;;;;;;1.15;1.15;;;33.90;41.20;;;;;;5037187;28;20565;-75
2022/09/22 10:30:22;;;;;;;1.30;1.00;;;34.10;39.50;;;;;;5039184;28;20216;-75
2022/09/22 10:33:19;;;;;;;1.40;1.10;;;34.20;38.10;;;;;;5041317;28;20234;-75
2022/09/22 10:35:54;;;;;;;2.95;2.05;;;33.70;39.00;;;;;;5039393;28;20245;-76
2022/09/22 10:38:22;;;;;;;1.55;1.45;;;34.20;39.00;;;;;;5030562;28;20175;-76
2022/09/22 10:41:09;;;;;;;1.10;1.10;;;34.50;38.90;;;;;;5029167;28;20689;-76
2022/09/22 10:43:43;;;;;;;1.50;1.40;;;34.60;39.10;;;;;;5043871;28;20277;-75
2022/09/22 10:46:31;;;;;;;1.20;1.20;;;35.00;38.00;;;;;;5028621;28;20694;-75
2022/09/22 10:49:07;;;;;;;1.10;1.10;;;35.40;36.80;;;;;;5035719;28;20201;-75
2022/09/22 10:51:48;;;;;;;1.67;1.60;;;35.60;37.50;;;;;;5020608;28;20205;-75
2022/09/22 10:54:41;;;;;;;1.55;1.45;;;36.10;36.90;;;;;;5020289;28;20176;-73
2022/09/22 10:57:37;;;;;;;1.50;1.40;;;36.00;37.40;;;;;;5025172;28;20181;-73
2022/09/22 11:00:16;;;;;;;1.92;1.30;;;35.80;37.50;;;;;;5024727;28;20195;-73
2022/09/22 11:03:03;;;;;;;1.52;1.42;;;35.40;37.40;;;;;;5020547;28;20187;-73
2022/09/22 11:12:15;;;;;;;1.50;1.50;;;34.80;37.00;;;;;;5036413;28;20751;-74
2022/09/22 11:14:58;;;;;;;1.50;1.40;;;35.60;36.90;;;;;;5042257;28;20183;-75
2022/09/22 11:18:01;;;;;;;1.15;1.05;;;36.00;37.30;;;;;;5040256;28;20175;-70
2022/09/22 11:20:47;;;;;;;1.20;1.05;;;36.30;36.00;;;;;;5038667;28;20667;-70
2022/09/22 11:23:20;;;;;;;2.03;1.48;;;36.20;36.60;;;;;;5033620;28;20230;-70
2022/09/22 11:25:53;;;;;;;1.30;1.30;;;36.40;35.60;;;;;;5023764;28;20277;-71
2022/09/22 11:28:50;;;;;;;2.33;1.45;;;36.40;36.20;;;;;;5027816;28;20251;-71
2022/09/22 11:31:41;;;;;;;2.17;1.90;;;36.60;36.40;;;;;;5029033;28;20249;-71
2022/09/22 11:34:40;;;;;;;3.30;1.50;;;37.00;35.70;;;;;;5036037;28;20281;-73
2022/09/22 11:37:24;;;;;;;2.35;1.98;;;36.90;36.30;;;;;;5030934;28;20265;-70
2022/09/22 11:40:04;;;;;;;1.35;1.35;;;37.40;35.30;;;;;;5028727;28;20651;-72
2022/09/22 11:42:55;;;;;;;1.48;1.38;;;37.70;35.00;;;;;;5027538;28;20593;-70
2022/09/22 11:45:20;;;;;;;5.05;1.77;;;38.40;34.50;;;;;;5025898;28;20275;-70
2022/09/22 11:48:23;;;;;;;1.52;1.42;;;38.80;34.20;;;;;;5025922;28;20292;-73
2022/09/22 11:51:07;;;;;;;4.95;1.65;;;38.30;34.70;;;;;;5039447;28;20207;-73
2022/09/22 11:53:51;;;;;;;2.25;1.50;;;38.00;36.20;;;;;;5034216;28;20218;-72
2022/09/22 11:56:20;;;;;;;2.10;1.48;;;38.40;34.60;;;;;;5032207;28;20183;-73
2022/09/22 11:58:47;;;;;;;2.15;1.10;;;38.40;34.10;;;;;;5033193;28;20184;-73
2022/09/22 12:01:19;;;;;;;3.30;1.50;;;37.70;34.50;;;;;;5038979;28;20666;-72
2022/09/22 12:03:46;;;;;;;1.63;1.30;;;35.10;35.90;;;;;;5039186;28;20271;-74
2022/09/22 12:06:17;;;;;;;1.10;1.10;;;34.70;36.00;;;;;;5028051;28;20172;-70
2022/09/22 12:08:52;;;;;;;1.40;1.30;;;34.90;36.40;;;;;;5034535;28;20567;-70
2022/09/22 12:11:19;;;;;;;1.52;1.25;;;35.20;36.10;;;;;;5028746;28;20196;-70
2022/09/22 12:13:49;;;;;;;1.60;1.50;;;34.70;36.90;;;;;;5041652;28;20650;-71
2022/09/22 12:16:24;;;;;;;1.88;1.45;;;35.00;37.70;;;;;;5030371;28;20230;-72
2022/09/22 12:19:05;;;;;;;1.88;1.60;;;35.40;37.10;;;;;;5026933;28;20187;-74
2022/09/22 12:22:06;;;;;;;1.52;1.42;;;36.00;36.10;;;;;;5036155;28;20876;-74
2022/09/22 12:24:33;;;;;;;1.85;1.08;;;35.70;36.40;;;;;;5033427;28;20608;-74
2022/09/22 12:27:28;;;;;;;1.70;1.20;;;35.40;36.20;;;;;;5037882;28;20195;-71
2022/09/22 12:30:06;;;;;;;2.33;1.42;;;35.70;35.70;;;;;;5027913;28;20188;-71
2022/09/22 12:32:41;;;;;;;1.42;1.33;;;35.60;35.50;;;;;;5026346;28;20564;-71
2022/09/22 12:35:17;;;;;;;1.02;1.02;;;35.80;35.80;;;;;;5025667;28;20214;-74
2022/09/22 12:37:43;;;;;;;1.42;1.33;;;36.50;35.80;;;;;;5030456;28;20188;-74
2022/09/22 12:40:47;;;;;;;1.55;1.45;;;37.50;34.30;;;;;;5040467;28;20187;-74
2022/09/22 12:43:18;;;;;;;0.90;0.90;;;36.80;34.90;;;;;;5035600;28;20683;-73
2022/09/22 12:45:44;;;;;;;1.27;1.27;;;35.90;36.20;;;;;;5029589;28;20207;-74
2022/09/22 12:48:17;;;;;;;2.55;1.40;;;36.60;35.20;;;;;;5045546;28;20210;-73
2022/09/22 12:50:44;;;;;;;1.48;1.27;;;37.00;35.80;;;;;;5023847;28;20659;-74
2022/09/22 12:53:25;;;;;;;1.13;0.88;;;37.60;35.40;;;;;;5041253;28;20253;-75
2022/09/22 12:55:55;;;;;;;1.15;1.08;;;38.00;33.90;;;;;;5036565;28;20599;-76
2022/09/22 12:58:21;;;;;;;1.33;1.27;;;38.00;33.90;;;;;;5029463;28;20262;-74
2022/09/22 13:00:51;;;;;;;1.35;1.30;;;37.90;33.50;;;;;;5031260;28;20295;-73
2022/09/22 13:03:26;;;;;;;1.40;1.30;;;36.70;34.00;;;;;;5030185;28;20180;-72
2022/09/22 13:06:03;;;;;;;1.90;0.90;;;35.50;35.00;;;;;;5024666;28;20207;-70
2022/09/22 13:08:31;;;;;;;2.20;1.50;;;34.70;35.40;;;;;;5034869;28;20601;-72
2022/09/22 13:11:06;;;;;;;1.38;1.27;;;32.80;37.50;;;;;;5033814;28;20197;-72
2022/09/22 13:13:46;;;;;;;2.10;1.38;;;31.20;38.20;;;;;;5044364;28;20175;-72
2022/09/22 13:16:14;;;;;;;1.10;1.10;;;29.00;40.80;;;;;;5024984;28;20646;-72
2022/09/22 13:18:40;;;;;;;1.10;1.05;;;27.30;43.70;;;;;;5043867;28;20230;-72
2022/09/22 13:21:11;;;;;;;1.85;1.30;;;26.30;45.90;;;;;;5041773;28;20702;-71
2022/09/22 13:24:01;;;;;;;1.88;1.23;;;25.70;47.10;;;;;;5048516;28;20210;-72
2022/09/22 13:26:33;;;;;;;5.40;1.70;;;25.60;48.10;;;;;;5038183;28;20172;-72
2022/09/22 13:29:18;;;;;;;2.25;1.13;;;26.10;47.70;;;;;;5048924;28;20176;-72
2022/09/22 13:31:54;;;;;;;1.48;1.10;;;27.30;46.30;;;;;;5036961;28;20718;-72
2022/09/22 13:34:28;;;;;;;1.27;1.25;;;29.20;42.70;;;;;;5038276;28;20188;-71
2022/09/22 13:37:15;;;;;;;1.27;1.20;;;30.50;40.60;;;;;;5044407;28;20654;-71